sensor_id;sensor_type;location;lat;lon;timestamp;pressure;altitude;pressure_sealevel;temperature;humidity
11049;BME280;5577;42.706;23.160;2022-12-07T00:00:22;94165.03;;;5.41;100.00
11049;BME280;5577;42.706;23.160;2022-12-07T00:03:06;94220.19;;;5.32;100.00
11049;BME280;5577;42.706;23.160;2022-12-07T00:05:50;94173.84;;;5.45;100.00
11049;BME280;5577;42.706;23.160;2022-12-07T00:08:35;94167.50;;;5.46;100.00
11049;BME280;5577;42.706;23.160;2022-12-07T00:11:21;94176.47;;;5.45;100.00
11049;BME280;5577;42.706;23.160;2022-12-07T00:14:09;94167.66;;;5.41;100.00
11049;BME280;5577;42.706;23.160;2022-12-07T00:16:53;94160.41;;;5.38;100.00
11049;BME280;5577;42.706;23.160;2022-12-07T00:19:37;94146.66;;;5.41;100.00
11049;BME280;5577;42.706;23.160;2022-12-07T00:22:21;94108.47;;;4.89;100.00
11049;BME280;5577;42.706;23.160;2022-12-07T00:25:05;94170.03;;;5.17;100.00
11049;BME280;5577;42.706;23.160;2022-12-07T00:27:49;94182.78;;;5.27;100.00
11049;BME280;5577;42.706;23.160;2022-12-07T00:30:33;94180.81;;;5.32;100.00
11049;BME280;5577;42.706;23.160;2022-12-07T00:33:17;94183.28;;;5.12;100.00
11049;BME280;5577;42.706;23.160;2022-12-07T00:36:03;94175.72;;;5.10;100.00
11049;BME280;5577;42.706;23.160;2022-12-07T00:38:49;94172.19;;;5.15;100.00
11049;BME280;5577;42.706;23.160;2022-12-07T00:41:33;94165.84;;;5.16;100.00
11049;BME280;5577;42.706;23.160;2022-12-07T00:44:17;94179.44;;;5.18;100.00
11049;BME280;5577;42.706;23.160;2022-12-07T00:47:00;94175.88;;;5.22;100.00
11049;BME280;5577;42.706;23.160;2022-12-07T00:49:45;94168.78;;;5.14;100.00
11049;BME280;5577;42.706;23.160;2022-12-07T00:52:28;94071.00;;;4.54;100.00
11049;BME280;5577;42.706;23.160;2022-12-07T00:55:13;94188.38;;;5.25;100.00
11049;BME280;5577;42.706;23.160;2022-12-07T00:57:56;94173.88;;;5.19;100.00
11049;BME280;5577;42.706;23.160;2022-12-07T01:00:42;94180.50;;;5.25;100.00
11049;BME280;5577;42.706;23.160;2022-12-07T01:03:26;94178.19;;;5.24;100.00
11049;BME280;5577;42.706;23.160;2022-12-07T01:06:14;94161.78;;;5.35;100.00
11049;BME280;5577;42.706;23.160;2022-12-07T01:08:59;94124.22;;;4.89;100.00
11049;BME280;5577;42.706;23.160;2022-12-07T01:11:43;94157.81;;;5.21;100.00
11049;BME280;5577;42.706;23.160;2022-12-07T01:14:27;94165.53;;;5.26;100.00
11049;BME280;5577;42.706;23.160;2022-12-07T01:17:11;94162.78;;;5.14;100.00
11049;BME280;5577;42.706;23.160;2022-12-07T01:19:55;94161.66;;;5.23;100.00
11049;BME280;5577;42.706;23.160;2022-12-07T01:22:40;94155.94;;;5.30;100.00
11049;BME280;5577;42.706;23.160;2022-12-07T01:25:24;94120.63;;;5.10;100.00
11049;BME280;5577;42.706;23.160;2022-12-07T01:28:08;94159.81;;;5.24;100.00
11049;BME280;5577;42.706;23.160;2022-12-07T01:31:08;94149.03;;;5.17;100.00
11049;BME280;5577;42.706;23.160;2022-12-07T01:33:58;94155.63;;;5.23;100.00
11049;BME280;5577;42.706;23.160;2022-12-07T01:36:42;94146.84;;;5.27;100.00
11049;BME280;5577;42.706;23.160;2022-12-07T01:39:26;94100.28;;;4.99;100.00
11049;BME280;5577;42.706;23.160;2022-12-07T01:42:11;94139.88;;;5.31;100.00
11049;BME280;5577;42.706;23.160;2022-12-07T01:48:01;94145.00;;;5.28;100.00
11049;BME280;5577;42.706;23.160;2022-12-07T01:50:47;94138.81;;;5.32;100.00
11049;BME280;5577;42.706;23.160;2022-12-07T01:53:35;94139.25;;;5.34;100.00
11049;BME280;5577;42.706;23.160;2022-12-07T01:56:22;94139.09;;;5.39;100.00
11049;BME280;5577;42.706;23.160;2022-12-07T01:59:08;94120.44;;;5.32;100.00
11049;BME280;5577;42.706;23.160;2022-12-07T02:01:54;94132.00;;;5.40;100.00
11049;BME280;5577;42.706;23.160;2022-12-07T02:04:39;94133.69;;;5.36;100.00
11049;BME280;5577;42.706;23.160;2022-12-07T02:07:23;94133.06;;;5.39;100.00
11049;BME280;5577;42.706;23.160;2022-12-07T02:10:28;94135.53;;;5.35;100.00
11049;BME280;5577;42.706;23.160;2022-12-07T02:13:22;94130.94;;;5.32;100.00
11049;BME280;5577;42.706;23.160;2022-12-07T02:19:22;94121.38;;;5.28;100.00
11049;BME280;5577;42.706;23.160;2022-12-07T02:25:33;94123.72;;;5.21;100.00
11049;BME280;5577;42.706;23.160;2022-12-07T02:31:33;94120.63;;;5.10;100.00
11049;BME280;5577;42.706;23.160;2022-12-07T02:37:12;94058.97;;;4.53;100.00
11049;BME280;5577;42.706;23.160;2022-12-07T02:40:06;94116.34;;;4.97;100.00
11049;BME280;5577;42.706;23.160;2022-12-07T02:43:00;94089.66;;;4.78;100.00
11049;BME280;5577;42.706;23.160;2022-12-07T02:45:47;94107.53;;;4.93;100.00
11049;BME280;5577;42.706;23.160;2022-12-07T02:48:33;94104.91;;;4.93;100.00
11049;BME280;5577;42.706;23.160;2022-12-07T02:51:18;94101.53;;;4.93;100.00
11049;BME280;5577;42.706;23.160;2022-12-07T02:54:07;94098.44;;;4.82;100.00
11049;BME280;5577;42.706;23.160;2022-12-07T03:00:08;94094.88;;;4.87;100.00
11049;BME280;5577;42.706;23.160;2022-12-07T03:03:00;94085.63;;;4.81;100.00
11049;BME280;5577;42.706;23.160;2022-12-07T03:06:22;94093.66;;;4.84;100.00
11049;BME280;5577;42.706;23.160;2022-12-07T03:09:29;94091.97;;;4.80;100.00
11049;BME280;5577;42.706;23.160;2022-12-07T03:12:24;94105.56;;;4.73;100.00
11049;BME280;5577;42.706;23.160;2022-12-07T03:15:24;94106.00;;;4.84;100.00
11049;BME280;5577;42.706;23.160;2022-12-07T03:18:12;94117.09;;;4.89;100.00
11049;BME280;5577;42.706;23.160;2022-12-07T03:21:09;94108.91;;;4.99;100.00
11049;BME280;5577;42.706;23.160;2022-12-07T03:23:57;94086.59;;;4.85;100.00
11049;BME280;5577;42.706;23.160;2022-12-07T03:26:47;94102.44;;;4.97;100.00
11049;BME280;5577;42.706;23.160;2022-12-07T03:29:36;94109.69;;;4.91;100.00
11049;BME280;5577;42.706;23.160;2022-12-07T03:32:37;94111.09;;;4.97;100.00
11049;BME280;5577;42.706;23.160;2022-12-07T03:35:43;94101.22;;;4.94;100.00
11049;BME280;5577;42.706;23.160;2022-12-07T03:38:46;94099.66;;;5.02;100.00
11049;BME280;5577;42.706;23.160;2022-12-07T03:41:33;94109.38;;;5.01;100.00
11049;BME280;5577;42.706;23.160;2022-12-07T03:44:21;94099.03;;;5.05;100.00
11049;BME280;5577;42.706;23.160;2022-12-07T03:53:36;94084.09;;;4.97;100.00
11049;BME280;5577;42.706;23.160;2022-12-07T03:56:23;94087.94;;;4.99;100.00
11049;BME280;5577;42.706;23.160;2022-12-07T03:59:09;94089.00;;;5.07;100.00
11049;BME280;5577;42.706;23.160;2022-12-07T04:01:56;94084.97;;;5.09;100.00
11049;BME280;5577;42.706;23.160;2022-12-07T04:04:43;94050.63;;;4.85;100.00
11049;BME280;5577;42.706;23.160;2022-12-07T04:07:27;94079.59;;;5.06;100.00
11049;BME280;5577;42.706;23.160;2022-12-07T04:10:11;94088.81;;;5.12;100.00
11049;BME280;5577;42.706;23.160;2022-12-07T04:12:55;94093.31;;;5.11;100.00
11049;BME280;5577;42.706;23.160;2022-12-07T04:15:39;94079.75;;;5.01;100.00
11049;BME280;5577;42.706;23.160;2022-12-07T04:18:23;94092.69;;;5.14;100.00
11049;BME280;5577;42.706;23.160;2022-12-07T04:21:07;94082.53;;;5.13;100.00
11049;BME280;5577;42.706;23.160;2022-12-07T04:23:51;94095.59;;;5.21;100.00
11049;BME280;5577;42.706;23.160;2022-12-07T04:26:35;94091.72;;;5.27;100.00
11049;BME280;5577;42.706;23.160;2022-12-07T04:29:20;94095.47;;;5.18;100.00
11049;BME280;5577;42.706;23.160;2022-12-07T04:32:04;93996.69;;;4.33;100.00
11049;BME280;5577;42.706;23.160;2022-12-07T04:34:48;94088.72;;;4.91;100.00
11049;BME280;5577;42.706;23.160;2022-12-07T04:37:32;94095.34;;;4.97;100.00
11049;BME280;5577;42.706;23.160;2022-12-07T04:40:16;94091.16;;;4.96;100.00
11049;BME280;5577;42.706;23.160;2022-12-07T04:43:00;94036.47;;;4.61;100.00
11049;BME280;5577;42.706;23.160;2022-12-07T04:45:48;94032.00;;;4.53;100.00
11049;BME280;5577;42.706;23.160;2022-12-07T04:48:32;94102.75;;;5.04;100.00
11049;BME280;5577;42.706;23.160;2022-12-07T04:51:19;94095.19;;;5.02;100.00
11049;BME280;5577;42.706;23.160;2022-12-07T04:54:04;94085.03;;;4.84;100.00
11049;BME280;5577;42.706;23.160;2022-12-07T04:56:49;94102.16;;;4.90;100.00
11049;BME280;5577;42.706;23.160;2022-12-07T04:59:32;94095.50;;;4.84;100.00
11049;BME280;5577;42.706;23.160;2022-12-07T05:02:16;94089.81;;;4.73;100.00
11049;BME280;5577;42.706;23.160;2022-12-07T05:05:00;94090.28;;;4.67;100.00
11049;BME280;5577;42.706;23.160;2022-12-07T05:07:44;94092.44;;;4.65;100.00
11049;BME280;5577;42.706;23.160;2022-12-07T05:10:28;94095.22;;;4.60;100.00
11049;BME280;5577;42.706;23.160;2022-12-07T05:13:12;94088.75;;;4.57;100.00
11049;BME280;5577;42.706;23.160;2022-12-07T05:15:56;94097.22;;;4.63;100.00
11049;BME280;5577;42.706;23.160;2022-12-07T05:18:40;94095.38;;;4.55;100.00
11049;BME280;5577;42.706;23.160;2022-12-07T05:21:24;94081.97;;;4.48;100.00
11049;BME280;5577;42.706;23.160;2022-12-07T05:24:10;94041.88;;;4.13;100.00
11049;BME280;5577;42.706;23.160;2022-12-07T05:26:55;94095.84;;;4.48;100.00
11049;BME280;5577;42.706;23.160;2022-12-07T05:29:39;94086.28;;;4.52;100.00
11049;BME280;5577;42.706;23.160;2022-12-07T05:32:23;94095.50;;;4.58;100.00
11049;BME280;5577;42.706;23.160;2022-12-07T05:35:08;94097.69;;;4.56;100.00
11049;BME280;5577;42.706;23.160;2022-12-07T05:37:52;94098.91;;;4.50;100.00
11049;BME280;5577;42.706;23.160;2022-12-07T05:40:36;94090.59;;;4.57;100.00
11049;BME280;5577;42.706;23.160;2022-12-07T05:43:20;94092.75;;;4.63;100.00
11049;BME280;5577;42.706;23.160;2022-12-07T05:46:04;94078.72;;;4.59;100.00
11049;BME280;5577;42.706;23.160;2022-12-07T05:48:48;94084.09;;;4.54;100.00
11049;BME280;5577;42.706;23.160;2022-12-07T05:51:32;94080.56;;;4.59;100.00
11049;BME280;5577;42.706;23.160;2022-12-07T05:54:16;94081.78;;;4.61;100.00
11049;BME280;5577;42.706;23.160;2022-12-07T05:57:00;94079.34;;;4.73;100.00
11049;BME280;5577;42.706;23.160;2022-12-07T05:59:44;94079.34;;;4.73;100.00
11049;BME280;5577;42.706;23.160;2022-12-07T06:02:28;94082.56;;;4.87;100.00
11049;BME280;5577;42.706;23.160;2022-12-07T06:05:11;94085.78;;;4.93;100.00
11049;BME280;5577;42.706;23.160;2022-12-07T06:07:55;94094.25;;;4.98;100.00
11049;BME280;5577;42.706;23.160;2022-12-07T06:10:39;94092.13;;;4.92;100.00
11049;BME280;5577;42.706;23.160;2022-12-07T06:13:23;94089.63;;;4.95;100.00
11049;BME280;5577;42.706;23.160;2022-12-07T06:16:07;94083.91;;;5.02;100.00
11049;BME280;5577;42.706;23.160;2022-12-07T06:18:51;94091.78;;;4.93;100.00
11049;BME280;5577;42.706;23.160;2022-12-07T06:21:35;94101.03;;;4.99;100.00
11049;BME280;5577;42.706;23.160;2022-12-07T06:24:19;94091.47;;;5.03;100.00
11049;BME280;5577;42.706;23.160;2022-12-07T06:27:03;94091.78;;;5.02;100.00
11049;BME280;5577;42.706;23.160;2022-12-07T06:29:48;94069.88;;;4.89;100.00
11049;BME280;5577;42.706;23.160;2022-12-07T06:32:32;94088.72;;;5.00;100.00
11049;BME280;5577;42.706;23.160;2022-12-07T06:35:17;94074.81;;;4.91;100.00
11049;BME280;5577;42.706;23.160;2022-12-07T06:38:00;94114.44;;;5.23;100.00
11049;BME280;5577;42.706;23.160;2022-12-07T06:40:44;94112.88;;;5.31;100.00
11049;BME280;5577;42.706;23.160;2022-12-07T06:43:28;94112.56;;;5.32;100.00
11049;BME280;5577;42.706;23.160;2022-12-07T06:46:14;94116.09;;;5.36;100.00
11049;BME280;5577;42.706;23.160;2022-12-07T06:48:57;94106.81;;;5.39;100.00
11049;BME280;5577;42.706;23.160;2022-12-07T06:51:42;94098.47;;;5.45;100.00
11049;BME280;5577;42.706;23.160;2022-12-07T06:54:26;94106.97;;;5.42;100.00
11049;BME280;5577;42.706;23.160;2022-12-07T06:57:11;94074.75;;;5.25;100.00
11049;BME280;5577;42.706;23.160;2022-12-07T06:59:55;94113.28;;;5.50;100.00
11049;BME280;5577;42.706;23.160;2022-12-07T07:02:39;94104.81;;;5.44;100.00
11049;BME280;5577;42.706;23.160;2022-12-07T07:05:23;94117.47;;;5.42;100.00
11049;BME280;5577;42.706;23.160;2022-12-07T07:08:07;94110.84;;;5.45;100.00
11049;BME280;5577;42.706;23.160;2022-12-07T07:10:51;94105.75;;;5.40;100.00
11049;BME280;5577;42.706;23.160;2022-12-07T07:13:35;94112.81;;;5.48;100.00
11049;BME280;5577;42.706;23.160;2022-12-07T07:16:19;94100.78;;;5.47;100.00
11049;BME280;5577;42.706;23.160;2022-12-07T07:19:03;94114.22;;;5.45;100.00
11049;BME280;5577;42.706;23.160;2022-12-07T07:21:47;94107.91;;;5.38;100.00
11049;BME280;5577;42.706;23.160;2022-12-07T07:24:31;94109.59;;;5.42;100.00
11049;BME280;5577;42.706;23.160;2022-12-07T07:27:15;94113.28;;;5.50;100.00
11049;BME280;5577;42.706;23.160;2022-12-07T07:29:59;94107.03;;;5.71;100.00
11049;BME280;5577;42.706;23.160;2022-12-07T07:32:43;94108.56;;;5.72;100.00
11049;BME280;5577;42.706;23.160;2022-12-07T07:35:28;94110.69;;;5.87;100.00
11049;BME280;5577;42.706;23.160;2022-12-07T07:38:13;94106.28;;;6.00;100.00
11049;BME280;5577;42.706;23.160;2022-12-07T07:40:57;94111.91;;;6.19;100.00
11049;BME280;5577;42.706;23.160;2022-12-07T07:43:41;94106.50;;;6.16;100.00
11049;BME280;5577;42.706;23.160;2022-12-07T07:46:25;94115.44;;;6.23;100.00
11049;BME280;5577;42.706;23.160;2022-12-07T07:49:09;94104.84;;;6.11;100.00
11049;BME280;5577;42.706;23.160;2022-12-07T07:51:54;94097.22;;;6.18;100.00
11049;BME280;5577;42.706;23.160;2022-12-07T07:54:38;94105.63;;;6.12;100.00
11049;BME280;5577;42.706;23.160;2022-12-07T07:57:22;94102.56;;;6.10;100.00
11049;BME280;5577;42.706;23.160;2022-12-07T08:00:10;94098.16;;;6.22;100.00
11049;BME280;5577;42.706;23.160;2022-12-07T08:02:54;94095.59;;;6.34;100.00
11049;BME280;5577;42.706;23.160;2022-12-07T08:05:38;94102.19;;;6.40;100.00
11049;BME280;5577;42.706;23.160;2022-12-07T08:08:22;94116.66;;;6.26;100.00
11049;BME280;5577;42.706;23.160;2022-12-07T08:11:08;94096.00;;;6.16;100.00
11049;BME280;5577;42.706;23.160;2022-12-07T08:13:52;94096.03;;;6.36;100.00
11049;BME280;5577;42.706;23.160;2022-12-07T08:16:37;94093.13;;;6.70;100.00
11049;BME280;5577;42.706;23.160;2022-12-07T08:19:21;94093.72;;;6.96;100.00
11049;BME280;5577;42.706;23.160;2022-12-07T08:22:05;94095.94;;;7.06;100.00
11049;BME280;5577;42.706;23.160;2022-12-07T08:24:49;94090.50;;;6.91;100.00
11049;BME280;5577;42.706;23.160;2022-12-07T08:27:33;94066.50;;;6.92;100.00
11049;BME280;5577;42.706;23.160;2022-12-07T08:30:17;94084.91;;;7.25;100.00
11049;BME280;5577;42.706;23.160;2022-12-07T08:33:03;94082.00;;;7.50;100.00
11049;BME280;5577;42.706;23.160;2022-12-07T08:35:47;94061.19;;;7.69;100.00
11049;BME280;5577;42.706;23.160;2022-12-07T08:38:31;94080.84;;;9.27;100.00
11049;BME280;5577;42.706;23.160;2022-12-07T08:41:15;94061.06;;;10.29;100.00
11049;BME280;5577;42.706;23.160;2022-12-07T08:43:59;94067.63;;;11.08;100.00
11049;BME280;5577;42.706;23.160;2022-12-07T08:46:53;94064.69;;;10.56;100.00
11049;BME280;5577;42.706;23.160;2022-12-07T08:49:43;94059.75;;;10.73;100.00
11049;BME280;5577;42.706;23.160;2022-12-07T08:52:32;94045.94;;;10.83;100.00
11049;BME280;5577;42.706;23.160;2022-12-07T08:55:17;94049.84;;;10.89;100.00
11049;BME280;5577;42.706;23.160;2022-12-07T08:58:02;94039.97;;;11.92;100.00
11049;BME280;5577;42.706;23.160;2022-12-07T09:00:46;94033.53;;;13.37;100.00
11049;BME280;5577;42.706;23.160;2022-12-07T09:03:31;94033.28;;;13.96;100.00
11049;BME280;5577;42.706;23.160;2022-12-07T09:06:15;94029.59;;;14.69;100.00
11049;BME280;5577;42.706;23.160;2022-12-07T09:09:00;94020.38;;;15.42;86.73
11049;BME280;5577;42.706;23.160;2022-12-07T09:11:45;94022.69;;;16.66;79.39
11049;BME280;5577;42.706;23.160;2022-12-07T09:14:28;94024.28;;;17.46;68.93
11049;BME280;5577;42.706;23.160;2022-12-07T09:17:12;94019.50;;;17.75;65.43
11049;BME280;5577;42.706;23.160;2022-12-07T09:19:57;94013.47;;;17.64;64.72
11049;BME280;5577;42.706;23.160;2022-12-07T09:22:41;94010.47;;;16.54;66.84
11049;BME280;5577;42.706;23.160;2022-12-07T09:25:25;94009.09;;;14.77;78.19
11049;BME280;5577;42.706;23.160;2022-12-07T09:28:08;94012.94;;;13.71;96.22
11049;BME280;5577;42.706;23.160;2022-12-07T09:30:53;94008.94;;;12.81;100.00
11049;BME280;5577;42.706;23.160;2022-12-07T09:33:36;94000.69;;;11.75;100.00
11049;BME280;5577;42.706;23.160;2022-12-07T09:36:20;94010.50;;;11.29;100.00
11049;BME280;5577;42.706;23.160;2022-12-07T09:39:04;93999.66;;;11.38;100.00
11049;BME280;5577;42.706;23.160;2022-12-07T09:41:49;93999.22;;;11.13;100.00
11049;BME280;5577;42.706;23.160;2022-12-07T09:44:34;93997.53;;;10.83;100.00
11049;BME280;5577;42.706;23.160;2022-12-07T09:47:19;93979.78;;;11.70;100.00
11049;BME280;5577;42.706;23.160;2022-12-07T09:50:10;93987.00;;;13.61;100.00
11049;BME280;5577;42.706;23.160;2022-12-07T09:53:10;93978.47;;;13.85;98.40
11049;BME280;5577;42.706;23.160;2022-12-07T09:55:56;93984.75;;;13.63;100.00
11049;BME280;5577;42.706;23.160;2022-12-07T09:58:41;93976.41;;;13.64;100.00
11049;BME280;5577;42.706;23.160;2022-12-07T10:01:29;93981.31;;;12.53;100.00
11049;BME280;5577;42.706;23.160;2022-12-07T10:04:16;93979.69;;;11.44;100.00
11049;BME280;5577;42.706;23.160;2022-12-07T10:07:05;93966.38;;;11.40;100.00
11049;BME280;5577;42.706;23.160;2022-12-07T10:09:49;93964.16;;;12.17;100.00
11049;BME280;5577;42.706;23.160;2022-12-07T10:12:54;93959.00;;;12.61;100.00
11049;BME280;5577;42.706;23.160;2022-12-07T10:15:55;93951.25;;;12.16;100.00
11049;BME280;5577;42.706;23.160;2022-12-07T10:18:41;93954.06;;;11.51;100.00
11049;BME280;5577;42.706;23.160;2022-12-07T10:21:26;93959.41;;;10.87;100.00
11049;BME280;5577;42.706;23.160;2022-12-07T10:26:54;93948.63;;;10.39;100.00
11049;BME280;5577;42.706;23.160;2022-12-07T10:29:39;93948.81;;;10.87;100.00
11049;BME280;5577;42.706;23.160;2022-12-07T10:32:33;93942.13;;;11.61;100.00
11049;BME280;5577;42.706;23.160;2022-12-07T10:35:29;93933.53;;;12.23;100.00
11049;BME280;5577;42.706;23.160;2022-12-07T10:38:16;93936.31;;;12.34;100.00
11049;BME280;5577;42.706;23.160;2022-12-07T10:41:07;93936.00;;;12.72;100.00
11049;BME280;5577;42.706;23.160;2022-12-07T10:43:54;93930.66;;;13.05;100.00
11049;BME280;5577;42.706;23.160;2022-12-07T10:53:07;93920.88;;;15.24;85.77
11049;BME280;5577;42.706;23.160;2022-12-07T11:08:05;93901.03;;;15.00;79.62
11049;BME280;5577;42.706;23.160;2022-12-07T11:13:50;93895.13;;;14.38;85.13
11049;BME280;5577;42.706;23.160;2022-12-07T11:16:44;93881.88;;;14.56;82.85
11049;BME280;5577;42.706;23.160;2022-12-07T11:32:13;93879.28;;;14.84;82.15
11049;BME280;5577;42.706;23.160;2022-12-07T11:37:56;93863.84;;;14.18;86.56
11049;BME280;5577;42.706;23.160;2022-12-07T11:40:46;93858.75;;;13.92;91.69
11049;BME280;5577;42.706;23.160;2022-12-07T11:43:34;93857.72;;;13.42;95.75
11049;BME280;5577;42.706;23.160;2022-12-07T11:46:20;93817.69;;;12.78;99.23
11049;BME280;5577;42.706;23.160;2022-12-07T11:49:19;93855.91;;;13.06;100.00
11049;BME280;5577;42.706;23.160;2022-12-07T11:52:54;93824.16;;;12.80;100.00
11049;BME280;5577;42.706;23.160;2022-12-07T11:55:27;93848.81;;;13.24;100.00
11049;BME280;5577;42.706;23.160;2022-12-07T12:04:21;93807.91;;;12.89;100.00
11049;BME280;5577;42.706;23.160;2022-12-07T12:07:07;93836.59;;;13.13;100.00
11049;BME280;5577;42.706;23.160;2022-12-07T12:10:01;93835.56;;;12.84;100.00
11049;BME280;5577;42.706;23.160;2022-12-07T12:21:30;93827.25;;;12.49;100.00
11049;BME280;5577;42.706;23.160;2022-12-07T12:24:19;93823.00;;;12.08;100.00
11049;BME280;5577;42.706;23.160;2022-12-07T12:27:09;93811.00;;;12.18;100.00
11049;BME280;5577;42.706;23.160;2022-12-07T12:30:30;93804.53;;;12.52;100.00
11049;BME280;5577;42.706;23.160;2022-12-07T12:33:28;93803.66;;;13.96;100.00
11049;BME280;5577;42.706;23.160;2022-12-07T12:41:54;93800.22;;;13.88;98.36
11049;BME280;5577;42.706;23.160;2022-12-07T12:44:39;93795.72;;;14.06;95.00
11049;BME280;5577;42.706;23.160;2022-12-07T12:47:52;93795.53;;;14.78;87.05
11049;BME280;5577;42.706;23.160;2022-12-07T12:50:37;93798.97;;;14.96;83.51
11049;BME280;5577;42.706;23.160;2022-12-07T12:53:25;93795.09;;;14.48;85.47
11049;BME280;5577;42.706;23.160;2022-12-07T12:56:32;93803.25;;;13.87;90.96
11049;BME280;5577;42.706;23.160;2022-12-07T12:59:23;93795.19;;;13.08;100.00
11049;BME280;5577;42.706;23.160;2022-12-07T13:02:20;93802.72;;;12.63;100.00
11049;BME280;5577;42.706;23.160;2022-12-07T13:08:02;93775.28;;;11.79;100.00
11049;BME280;5577;42.706;23.160;2022-12-07T13:10:49;93797.34;;;11.83;100.00
11049;BME280;5577;42.706;23.160;2022-12-07T13:13:34;93793.50;;;11.80;100.00
11049;BME280;5577;42.706;23.160;2022-12-07T13:16:37;93795.00;;;11.78;100.00
11049;BME280;5577;42.706;23.160;2022-12-07T13:25:22;93789.75;;;11.81;100.00
11049;BME280;5577;42.706;23.160;2022-12-07T13:28:14;93785.06;;;11.71;100.00
11049;BME280;5577;42.706;23.160;2022-12-07T13:31:11;93787.19;;;11.88;100.00
11049;BME280;5577;42.706;23.160;2022-12-07T13:33:57;93779.84;;;11.78;100.00
11049;BME280;5577;42.706;23.160;2022-12-07T13:36:44;93771.09;;;11.48;100.00
11049;BME280;5577;42.706;23.160;2022-12-07T13:39:28;93784.31;;;11.44;100.00
11049;BME280;5577;42.706;23.160;2022-12-07T13:42:32;93778.03;;;11.56;100.00
11049;BME280;5577;42.706;23.160;2022-12-07T13:45:25;93781.66;;;11.71;100.00
11049;BME280;5577;42.706;23.160;2022-12-07T13:48:36;93785.59;;;11.84;100.00
11049;BME280;5577;42.706;23.160;2022-12-07T13:51:27;93789.88;;;11.62;100.00
11049;BME280;5577;42.706;23.160;2022-12-07T13:54:13;93788.00;;;11.63;100.00
11049;BME280;5577;42.706;23.160;2022-12-07T13:56:58;93785.59;;;11.54;100.00
11049;BME280;5577;42.706;23.160;2022-12-07T13:59:42;93786.19;;;11.44;100.00
11049;BME280;5577;42.706;23.160;2022-12-07T14:02:31;93777.00;;;11.34;100.00
11049;BME280;5577;42.706;23.160;2022-12-07T14:05:24;93785.72;;;11.09;100.00
11049;BME280;5577;42.706;23.160;2022-12-07T14:10:57;93783.28;;;10.74;100.00
11049;BME280;5577;42.706;23.160;2022-12-07T14:16:35;93784.34;;;10.25;100.00
11049;BME280;5577;42.706;23.160;2022-12-07T14:22:39;93799.03;;;9.84;100.00
11049;BME280;5577;42.706;23.160;2022-12-07T14:25:24;93799.09;;;9.69;100.00
11049;BME280;5577;42.706;23.160;2022-12-07T14:28:25;93791.72;;;9.59;100.00
11049;BME280;5577;42.706;23.160;2022-12-07T14:31:15;93790.94;;;9.39;100.00
11049;BME280;5577;42.706;23.160;2022-12-07T14:33:59;93796.41;;;9.31;100.00
11049;BME280;5577;42.706;23.160;2022-12-07T14:36:44;93787.84;;;9.18;100.00
11049;BME280;5577;42.706;23.160;2022-12-07T14:39:27;93792.56;;;9.09;100.00
11049;BME280;5577;42.706;23.160;2022-12-07T14:42:12;93791.38;;;9.07;100.00
11049;BME280;5577;42.706;23.160;2022-12-07T14:44:56;93755.16;;;8.72;100.00
11049;BME280;5577;42.706;23.160;2022-12-07T14:47:41;93804.34;;;8.96;100.00
11049;BME280;5577;42.706;23.160;2022-12-07T14:50:25;93747.53;;;8.52;100.00
11049;BME280;5577;42.706;23.160;2022-12-07T14:53:13;93796.44;;;8.65;100.00
11049;BME280;5577;42.706;23.160;2022-12-07T14:55:57;93795.06;;;8.40;100.00
11049;BME280;5577;42.706;23.160;2022-12-07T14:58:41;93800.09;;;8.29;100.00
11049;BME280;5577;42.706;23.160;2022-12-07T15:01:25;93802.81;;;8.33;100.00
11049;BME280;5577;42.706;23.160;2022-12-07T15:04:09;93801.50;;;8.27;100.00
11049;BME280;5577;42.706;23.160;2022-12-07T15:06:57;93799.84;;;8.07;100.00
11049;BME280;5577;42.706;23.160;2022-12-07T15:09:42;93795.41;;;7.95;100.00
11049;BME280;5577;42.706;23.160;2022-12-07T15:12:26;93812.50;;;8.01;100.00
11049;BME280;5577;42.706;23.160;2022-12-07T15:15:10;93823.16;;;7.77;100.00
11049;BME280;5577;42.706;23.160;2022-12-07T15:17:54;93817.81;;;7.62;100.00
11049;BME280;5577;42.706;23.160;2022-12-07T15:20:38;93824.41;;;7.56;100.00
11049;BME280;5577;42.706;23.160;2022-12-07T15:23:22;93819.94;;;7.56;100.00
11049;BME280;5577;42.706;23.160;2022-12-07T15:26:07;93823.03;;;7.46;100.00
11049;BME280;5577;42.706;23.160;2022-12-07T15:28:53;93827.34;;;7.27;100.00
11049;BME280;5577;42.706;23.160;2022-12-07T15:31:37;93832.41;;;7.20;100.00
11049;BME280;5577;42.706;23.160;2022-12-07T15:34:23;93841.50;;;6.98;100.00
11049;BME280;5577;42.706;23.160;2022-12-07T15:37:07;93835.59;;;6.89;100.00
11049;BME280;5577;42.706;23.160;2022-12-07T15:39:54;93846.56;;;6.91;100.00
11049;BME280;5577;42.706;23.160;2022-12-07T15:42:38;93843.25;;;6.94;100.00
11049;BME280;5577;42.706;23.160;2022-12-07T15:45:22;93853.56;;;6.87;100.00
11049;BME280;5577;42.706;23.160;2022-12-07T15:48:06;93768.63;;;6.39;100.00
11049;BME280;5577;42.706;23.160;2022-12-07T15:50:50;93846.56;;;6.91;100.00
11049;BME280;5577;42.706;23.160;2022-12-07T15:53:35;93851.38;;;6.65;100.00
11049;BME280;5577;42.706;23.160;2022-12-07T15:56:20;93818.53;;;6.27;100.00
11049;BME280;5577;42.706;23.160;2022-12-07T15:59:04;93859.34;;;6.57;100.00
11049;BME280;5577;42.706;23.160;2022-12-07T16:01:48;93829.31;;;6.46;100.00
11049;BME280;5577;42.706;23.160;2022-12-07T16:04:32;93848.84;;;6.57;100.00
11049;BME280;5577;42.706;23.160;2022-12-07T16:07:18;93853.88;;;6.62;100.00
11049;BME280;5577;42.706;23.160;2022-12-07T16:10:03;93850.59;;;6.53;100.00
11049;BME280;5577;42.706;23.160;2022-12-07T16:12:47;93863.59;;;6.49;100.00
11049;BME280;5577;42.706;23.160;2022-12-07T16:15:31;93857.16;;;6.47;100.00
11049;BME280;5577;42.706;23.160;2022-12-07T16:18:15;93857.38;;;6.54;100.00
11049;BME280;5577;42.706;23.160;2022-12-07T16:21:01;93867.78;;;6.50;100.00
11049;BME280;5577;42.706;23.160;2022-12-07T16:23:46;93867.34;;;6.48;100.00